34IL weather

G. Bray Airport
Lewistown, Illinois, United States

Public forecast

Using degrees Fahrenheit for public forecast. Weather courtesy of forecast.io.

METAR (pilot weather report)

Closest report is General Wayne A. Downing Peoria International Airport, 26.2 nm (48.6 km) NE. Retrieved 2019/06/17 20:54 UTC (1 hour ago):

KPIA 172054Z 06005KT 10SM OVC015 21/16 A2998 RMK AO2 SLP149 T02060161 56008 $

TAF (pilot weather forecast)

Closest forecast is General Wayne A. Downing Peoria International Airport, 26.2 nm (48.6 km) NE. Retrieved 2019/06/17 18:22 UTC (4 hours ago):

TAF KPIA 171720Z 1718/1818 05007KT P6SM OVC018 FM172100 05005KT P6SM OVC045 FM180700 05003KT 5SM BR BKN025 FM181000 04003KT 4SM BR OVC009 FM181400 04003KT P6SM SCT012 BKN018